Terminal Aerodrome Forecast
Issued by NWS

Home | Current Version | Previous Version | Text Only | Print | Product List | Glossary On
Versions: 1 2 3 4 5 6 7 8 9 10 11 12 13 14 15 16 17 18 19 20 21 22 23 24 25 26 27 28 29 30 31 32 33 34 35 36 37 38 39 40 41 42 43 44 45 46 47 48 49 50
896
FTUS46 KHNX 131551 AAB
TAFMCE
TAF AMD
KMCE 131551Z 1316/1412 VRB02KT 1SM BR OVC003
     FM131800 VRB04KT 2SM BR OVC005
     FM131900 VRB05KT 4SM BR OVC050
     FM132100 09005KT 5SM BR OVC050
     FM140800 06004KT 2SM BR OVC003
     FM141100 33004KT 1/4SM FG OVC003=

USA.gov is the U.S. government's official web portal to all federal, state and local government web resources and services.